Time;durP1;ratioP1;P1;durP2;ratioP2;P2;SDS_P1;SDS_P2;PMS_P1;PMS_P2;Temp;Humidity;BMP_temperature;BMP_pressure;BME280_temperature;BME280_humidity;BME280_pressure;Samples;Min_cycle;Max_cycle;Signal;HPM_P1;HPM_P2
2023/10/02 00:01:47;;;;;;;28.10;17.02;;;16.80;99.90;;;;;;5054819;28;20051;-66
2023/10/02 00:04:16;;;;;;;24.27;15.75;;;16.70;99.90;;;;;;5054081;28;20131;-66
2023/10/02 00:06:43;;;;;;;26.98;16.48;;;16.70;99.90;;;;;;5054009;28;20508;-65
2023/10/02 00:09:09;;;;;;;26.60;16.40;;;16.60;99.90;;;;;;5036933;28;20044;-66
2023/10/02 00:11:41;;;;;;;29.13;18.00;;;16.50;99.90;;;;;;5053586;28;20045;-66
2023/10/02 00:14:19;;;;;;;27.20;17.90;;;16.50;99.90;;;;;;5022423;28;20037;-66
2023/10/02 00:17:03;;;;;;;28.02;16.83;;;16.50;99.90;;;;;;5053652;28;20068;-66
2023/10/02 00:19:39;;;;;;;26.67;17.52;;;16.50;99.90;;;;;;5053423;28;20037;-65
2023/10/02 00:22:10;;;;;;;25.80;17.00;;;16.50;99.90;;;;;;5053232;28;20132;-65
2023/10/02 00:24:39;;;;;;;30.37;17.70;;;16.40;99.90;;;;;;5053560;28;20037;-66
2023/10/02 00:27:07;;;;;;;28.55;17.85;;;16.40;99.90;;;;;;5053334;28;20044;-66
2023/10/02 00:29:35;;;;;;;25.50;16.45;;;16.40;99.90;;;;;;5053292;28;20041;-66
2023/10/02 00:32:10;;;;;;;26.73;16.48;;;16.30;99.90;;;;;;5036517;28;20098;-66
2023/10/02 00:34:38;;;;;;;27.90;17.45;;;16.40;99.90;;;;;;5053489;28;20037;-66
2023/10/02 00:37:08;;;;;;;27.20;18.52;;;16.30;99.90;;;;;;5053116;28;20196;-66
2023/10/02 00:39:35;;;;;;;25.75;17.73;;;16.40;99.90;;;;;;5052787;28;20041;-66
2023/10/02 00:42:17;;;;;;;28.88;18.48;;;16.40;99.90;;;;;;5036074;28;20045;-65
2023/10/02 00:45:01;;;;;;;27.17;17.88;;;16.40;99.90;;;;;;5053255;28;20041;-67
2023/10/02 00:47:47;;;;;;;27.15;17.30;;;16.50;99.90;;;;;;5053142;28;20053;-66
2023/10/02 00:50:21;;;;;;;26.80;17.95;;;16.40;99.90;;;;;;5037947;28;20124;-66
2023/10/02 00:53:03;;;;;;;26.40;16.67;;;16.50;99.90;;;;;;5052861;28;20116;-66
2023/10/02 00:55:33;;;;;;;24.33;16.05;;;16.50;99.90;;;;;;5052801;28;20037;-65
2023/10/02 00:58:04;;;;;;;26.90;17.77;;;16.50;99.90;;;;;;5052666;28;20040;-66
2023/10/02 01:00:35;;;;;;;26.92;17.30;;;16.60;99.90;;;;;;5019793;28;20040;-66
2023/10/02 01:03:05;;;;;;;25.52;17.10;;;16.60;99.90;;;;;;5069375;28;20029;-66
2023/10/02 01:05:47;;;;;;;27.23;17.90;;;16.60;99.90;;;;;;5052589;28;20041;-67
2023/10/02 01:08:42;;;;;;;29.40;18.52;;;16.60;99.90;;;;;;5052478;28;20087;-66
2023/10/02 01:11:15;;;;;;;29.70;17.80;;;16.70;99.90;;;;;;5052521;28;20499;-67
2023/10/02 01:13:42;;;;;;;29.42;18.63;;;16.70;99.90;;;;;;5052409;28;20125;-67
2023/10/02 01:16:08;;;;;;;27.13;17.38;;;16.70;99.90;;;;;;5035838;28;20049;-66
2023/10/02 01:18:36;;;;;;;27.30;17.17;;;16.70;99.90;;;;;;5052447;28;20037;-66
2023/10/02 01:21:10;;;;;;;28.83;18.83;;;16.70;99.90;;;;;;5035664;28;20065;-66
2023/10/02 01:24:06;;;;;;;24.88;16.35;;;16.70;99.90;;;;;;5036737;28;20519;-66
2023/10/02 01:26:43;;;;;;;27.02;18.45;;;16.70;99.90;;;;;;5052402;28;20052;-66
2023/10/02 01:29:13;;;;;;;27.92;17.67;;;16.70;99.90;;;;;;5036025;28;20050;-66
2023/10/02 01:31:44;;;;;;;28.40;18.05;;;16.60;99.90;;;;;;5035460;28;20099;-66
2023/10/02 01:34:34;;;;;;;25.58;16.95;;;16.60;99.90;;;;;;5052061;28;20037;-66
2023/10/02 01:43:11;;;;;;;29.25;18.33;;;16.50;99.90;;;;;;5024079;28;20049;-66
2023/10/02 01:45:42;;;;;;;29.15;18.17;;;16.50;99.90;;;;;;5051858;28;20084;-66
2023/10/02 01:48:12;;;;;;;26.00;16.77;;;16.50;99.90;;;;;;5003670;28;20103;-66
2023/10/02 01:50:38;;;;;;;29.45;17.77;;;16.50;99.90;;;;;;5034984;28;20063;-67
2023/10/02 01:53:07;;;;;;;27.70;18.27;;;16.60;99.90;;;;;;5052772;28;20045;-66
2023/10/02 01:55:35;;;;;;;27.33;18.23;;;16.60;99.90;;;;;;5035805;28;20084;-67
2023/10/02 01:58:23;;;;;;;27.88;17.88;;;16.60;99.90;;;;;;5051793;28;20040;-67
2023/10/02 02:00:48;;;;;;;27.55;18.73;;;16.60;99.90;;;;;;5051662;28;20056;-66
2023/10/02 02:03:17;;;;;;;26.48;17.80;;;16.60;99.90;;;;;;5035720;28;20049;-67
2023/10/02 02:05:46;;;;;;;26.10;17.52;;;16.60;99.90;;;;;;5035449;28;20037;-66
2023/10/02 02:08:21;;;;;;;30.00;18.35;;;16.60;99.90;;;;;;5051893;28;20123;-67
2023/10/02 02:10:53;;;;;;;29.85;17.83;;;16.70;99.90;;;;;;5051773;28;20088;-67
2023/10/02 02:13:20;;;;;;;;;;;16.60;99.90;;;;;;5052337;28;20124;-67
2023/10/02 02:15:51;;;;;;;29.05;18.33;;;16.70;99.90;;;;;;5034948;28;20000;-66
2023/10/02 02:18:19;;;;;;;26.10;17.10;;;16.70;99.90;;;;;;5035216;28;20060;-66
2023/10/02 02:20:58;;;;;;;27.13;17.98;;;16.70;99.90;;;;;;5051549;28;20053;-66
2023/10/02 02:23:28;;;;;;;27.65;17.77;;;16.60;99.90;;;;;;5034711;28;20060;-66
2023/10/02 02:25:54;;;;;;;29.35;18.60;;;16.70;99.90;;;;;;5051473;28;20036;-66
2023/10/02 02:28:22;;;;;;;28.42;18.08;;;16.70;99.90;;;;;;5051480;28;20052;-65
2023/10/02 02:30:47;;;;;;;29.23;18.42;;;16.70;99.90;;;;;;5051449;28;20138;-66
2023/10/02 02:33:15;;;;;;;29.33;18.48;;;16.70;99.90;;;;;;5051595;28;20436;-66
2023/10/02 02:35:41;;;;;;;32.38;19.55;;;16.70;99.90;;;;;;5051415;28;20041;-67
2023/10/02 02:38:16;;;;;;;31.35;18.98;;;16.70;99.90;;;;;;5034887;28;20090;-67
2023/10/02 02:40:42;;;;;;;27.92;18.27;;;16.70;99.90;;;;;;5052623;28;20120;-67
2023/10/02 02:43:19;;;;;;;27.83;17.80;;;16.70;99.90;;;;;;5051639;28;20122;-67
2023/10/02 02:45:45;;;;;;;27.40;18.15;;;16.70;99.90;;;;;;5036281;28;20044;-66
2023/10/02 02:48:12;;;;;;;29.27;18.25;;;16.70;99.90;;;;;;5018287;28;20045;-66
2023/10/02 02:50:42;;;;;;;28.77;18.25;;;16.60;99.90;;;;;;5051161;28;20045;-67
2023/10/02 02:53:22;;;;;;;27.25;17.67;;;16.60;99.90;;;;;;5051164;28;20044;-67
2023/10/02 02:56:22;;;;;;;27.55;18.30;;;16.60;99.90;;;;;;5051167;28;20041;-67
2023/10/02 02:58:55;;;;;;;29.15;18.70;;;16.50;99.90;;;;;;5034886;28;20062;-67
2023/10/02 03:01:22;;;;;;;33.42;20.00;;;16.50;99.90;;;;;;5051096;28;20045;-66
2023/10/02 03:03:49;;;;;;;27.45;17.63;;;16.50;99.90;;;;;;5052559;28;20048;-67
2023/10/02 03:06:23;;;;;;;31.25;19.05;;;16.40;99.90;;;;;;5072312;28;20041;-72
2023/10/02 03:08:52;;;;;;;28.42;18.08;;;16.40;99.90;;;;;;5056032;28;20484;-74
2023/10/02 03:11:20;;;;;;;27.30;17.15;;;16.40;99.90;;;;;;5055913;28;20049;-73
2023/10/02 03:13:47;;;;;;;29.50;19.52;;;16.40;99.90;;;;;;5056501;28;20041;-72
2023/10/02 03:16:17;;;;;;;28.40;18.50;;;16.40;99.90;;;;;;5041993;28;20048;-74
2023/10/02 03:18:43;;;;;;;25.23;17.08;;;16.30;99.90;;;;;;5043851;28;20049;-74
2023/10/02 03:21:23;;;;;;;28.58;17.30;;;16.30;99.90;;;;;;5043065;28;20136;-74
2023/10/02 03:23:59;;;;;;;26.83;17.58;;;16.30;99.90;;;;;;5059405;28;20048;-73
2023/10/02 03:29:11;;;;;;;26.08;17.80;;;16.30;99.90;;;;;;5059097;28;20124;-74
2023/10/02 03:31:51;;;;;;;29.95;18.35;;;16.20;99.90;;;;;;5042933;28;20091;-73
2023/10/02 03:34:34;;;;;;;30.67;19.70;;;16.20;99.90;;;;;;5041215;28;20628;-74
2023/10/02 03:37:13;;;;;;;31.08;19.25;;;16.20;99.90;;;;;;5041696;28;20044;-73
2023/10/02 03:39:59;;;;;;;26.63;18.17;;;16.20;99.90;;;;;;5057661;28;20049;-73
2023/10/02 03:42:32;;;;;;;28.90;18.85;;;16.10;99.90;;;;;;5056424;28;20037;-73
2023/10/02 03:44:59;;;;;;;27.77;17.50;;;16.10;99.90;;;;;;5056468;28;20052;-73
2023/10/02 03:47:30;;;;;;;30.20;17.33;;;16.10;99.90;;;;;;5039701;28;20045;-73
2023/10/02 03:50:18;;;;;;;30.02;18.75;;;16.00;99.90;;;;;;5039356;28;20045;-72
2023/10/02 03:52:46;;;;;;;28.73;18.20;;;16.00;99.90;;;;;;5055209;28;20119;-73
2023/10/02 03:55:18;;;;;;;27.60;18.10;;;15.90;99.90;;;;;;5055190;28;20109;-72
2023/10/02 03:57:47;;;;;;;21.95;15.27;;;15.90;99.90;;;;;;5055434;28;20074;-72
2023/10/02 04:02:45;;;;;;;32.50;19.95;;;15.90;99.90;;;;;;5054755;28;20056;-74
2023/10/02 04:05:30;;;;;;;28.83;18.38;;;15.80;99.90;;;;;;5038874;28;20045;-73
2023/10/02 04:08:12;;;;;;;28.58;18.48;;;15.80;99.90;;;;;;5040956;28;20049;-73
2023/10/02 04:10:51;;;;;;;22.95;16.42;;;15.70;99.90;;;;;;5056366;28;20049;-73
2023/10/02 04:13:34;;;;;;;29.27;18.80;;;15.70;99.90;;;;;;5054873;28;20037;-73
2023/10/02 04:18:45;;;;;;;28.35;18.13;;;15.70;99.90;;;;;;5054244;28;20048;-73
2023/10/02 04:21:19;;;;;;;32.55;20.48;;;15.60;99.90;;;;;;5055565;28;20065;-72
2023/10/02 04:23:45;;;;;;;33.15;19.90;;;15.60;99.90;;;;;;5054208;28;20059;-72
2023/10/02 04:26:22;;;;;;;30.65;19.50;;;15.60;99.90;;;;;;5037947;28;20037;-72
2023/10/02 04:28:56;;;;;;;29.77;19.25;;;15.50;99.90;;;;;;5038034;28;20470;-72
2023/10/02 04:31:28;;;;;;;32.15;20.75;;;15.50;99.90;;;;;;5054855;28;20037;-73
2023/10/02 04:36:41;;;;;;;26.17;17.05;;;15.50;99.90;;;;;;5054514;28;20041;-73
2023/10/02 04:45:17;;;;;;;29.92;18.38;;;15.40;99.90;;;;;;5053793;28;20041;-72
2023/10/02 04:47:44;;;;;;;26.38;16.85;;;15.40;99.90;;;;;;5053995;28;20037;-73
2023/10/02 04:55:31;;;;;;;32.75;19.80;;;15.50;99.90;;;;;;5054918;28;20094;-71
2023/10/02 05:03:36;;;;;;;34.37;22.03;;;15.50;99.90;;;;;;5053627;28;20135;-73
2023/10/02 05:06:03;;;;;;;33.72;20.33;;;15.50;99.90;;;;;;5037229;28;20603;-73
2023/10/02 05:08:37;;;;;;;35.63;21.65;;;15.40;99.90;;;;;;5036425;28;20431;-73
2023/10/02 05:11:07;;;;;;;30.15;19.60;;;15.40;99.90;;;;;;5053260;28;20483;-72
2023/10/02 05:13:53;;;;;;;34.15;20.48;;;15.40;99.90;;;;;;5021197;28;20394;-72
2023/10/02 05:16:33;;;;;;;34.67;21.20;;;15.40;99.90;;;;;;5035936;28;20116;-73
2023/10/02 05:19:04;;;;;;;32.85;21.08;;;15.30;99.90;;;;;;5037621;28;20072;-73
2023/10/02 05:21:38;;;;;;;33.33;20.55;;;15.30;99.90;;;;;;5036040;28;20083;-73
2023/10/02 05:24:06;;;;;;;34.15;21.10;;;15.30;99.90;;;;;;5053265;28;20057;-73
2023/10/02 05:26:36;;;;;;;29.25;18.70;;;15.20;99.90;;;;;;5053017;28;20508;-73
2023/10/02 05:29:06;;;;;;;34.08;20.63;;;15.20;99.90;;;;;;5037090;28;20375;-72
2023/10/02 05:31:50;;;;;;;34.15;20.55;;;15.20;99.90;;;;;;5052821;28;20561;-73
2023/10/02 05:34:24;;;;;;;38.58;22.55;;;15.20;99.90;;;;;;5036280;28;20048;-72
2023/10/02 05:39:39;;;;;;;35.17;21.98;;;15.10;99.90;;;;;;5052917;28;20402;-72
2023/10/02 05:42:15;;;;;;;35.95;21.85;;;15.10;99.90;;;;;;5036856;28;20044;-73
2023/10/02 05:44:45;;;;;;;34.13;21.95;;;15.10;99.90;;;;;;5052949;28;20051;-73
2023/10/02 05:47:17;;;;;;;32.35;20.65;;;15.10;99.90;;;;;;5053011;28;20052;-73
2023/10/02 05:49:49;;;;;;;;;;;15.10;99.90;;;;;;5053282;28;20175;-73
2023/10/02 05:52:18;;;;;;;36.20;21.98;;;15.10;99.90;;;;;;5036080;28;20373;-72
2023/10/02 05:58:30;;;;;;;37.97;23.00;;;15.20;99.90;;;;;;5054772;28;20413;-72
2023/10/02 06:01:01;;;;;;;34.97;22.60;;;15.20;99.90;;;;;;5053203;28;20072;-72
2023/10/02 06:03:34;;;;;;;36.85;22.02;;;15.20;99.90;;;;;;5053068;28;20056;-73
2023/10/02 06:06:23;;;;;;;35.80;23.10;;;15.20;99.90;;;;;;5052930;28;20048;-73
2023/10/02 06:08:56;;;;;;;34.47;21.20;;;15.30;99.90;;;;;;5040264;28;20405;-73
2023/10/02 06:11:26;;;;;;;30.88;20.75;;;15.30;99.90;;;;;;5054046;28;20045;-74
2023/10/02 06:13:54;;;;;;;36.75;21.70;;;15.30;99.90;;;;;;5036923;28;20043;-72
2023/10/02 06:16:30;;;;;;;35.05;22.10;;;15.30;99.90;;;;;;5053288;28;20036;-71
2023/10/02 06:19:02;;;;;;;34.60;21.73;;;15.30;99.90;;;;;;5053742;28;20048;-72
2023/10/02 06:21:45;;;;;;;35.75;22.23;;;15.40;99.90;;;;;;5037421;28;20131;-72
2023/10/02 06:24:19;;;;;;;36.45;21.80;;;15.40;99.90;;;;;;5038466;28;20098;-73
2023/10/02 06:26:57;;;;;;;33.33;21.63;;;15.40;99.90;;;;;;5037376;28;20546;-74
2023/10/02 06:29:32;;;;;;;32.72;21.13;;;15.50;99.90;;;;;;5053890;28;20045;-72
2023/10/02 06:31:58;;;;;;;35.17;21.65;;;15.60;99.90;;;;;;5054287;28;20056;-72
2023/10/02 06:34:38;;;;;;;31.45;21.00;;;15.60;99.90;;;;;;5039111;28;20033;-72
2023/10/02 06:37:12;;;;;;;31.38;20.55;;;15.70;99.90;;;;;;5051434;28;20033;-67
2023/10/02 06:40:13;;;;;;;33.97;20.70;;;15.80;99.90;;;;;;5054225;28;20474;-67
2023/10/02 06:45:36;;;;;;;34.45;20.23;;;15.90;99.90;;;;;;5046692;28;20195;-67
2023/10/02 06:48:02;;;;;;;31.38;19.83;;;15.90;99.90;;;;;;5055478;28;20481;-67
2023/10/02 06:50:29;;;;;;;32.22;19.55;;;16.00;99.90;;;;;;5055084;28;20107;-67
2023/10/02 06:52:55;;;;;;;30.30;19.15;;;16.10;99.90;;;;;;5055128;28;20045;-67
2023/10/02 06:55:25;;;;;;;29.10;19.33;;;16.10;99.90;;;;;;5055229;28;20495;-67
2023/10/02 06:58:02;;;;;;;31.63;20.08;;;16.10;99.90;;;;;;5054969;28;20045;-66
2023/10/02 07:00:36;;;;;;;29.90;19.77;;;16.30;99.90;;;;;;5055270;28;20527;-66
2023/10/02 07:03:03;;;;;;;29.25;18.88;;;16.30;99.90;;;;;;5024331;28;20041;-66
2023/10/02 07:05:32;;;;;;;29.13;19.00;;;16.40;99.90;;;;;;5038092;28;20036;-66
2023/10/02 07:08:01;;;;;;;30.35;18.98;;;16.40;99.90;;;;;;5055155;28;20045;-66
2023/10/02 07:10:29;;;;;;;30.65;19.42;;;16.50;99.90;;;;;;5038504;28;20041;-66
2023/10/02 07:12:56;;;;;;;28.92;18.42;;;16.50;99.90;;;;;;5056017;28;20041;-66
2023/10/02 07:15:26;;;;;;;29.75;18.73;;;16.50;99.90;;;;;;5054705;28;20040;-66
2023/10/02 07:18:00;;;;;;;29.15;18.65;;;16.60;99.90;;;;;;5038981;28;20041;-66
2023/10/02 07:20:42;;;;;;;31.17;19.15;;;16.60;99.90;;;;;;5039354;28;20520;-67
2023/10/02 07:23:13;;;;;;;28.13;18.33;;;16.70;99.90;;;;;;5040187;28;20057;-67
2023/10/02 07:25:41;;;;;;;31.05;18.38;;;16.70;99.90;;;;;;5054582;28;20089;-66
2023/10/02 07:28:08;;;;;;;28.83;18.42;;;16.80;99.90;;;;;;5037966;28;20098;-68
2023/10/02 07:30:33;;;;;;;28.73;18.10;;;16.90;99.90;;;;;;5037888;28;20045;-65
2023/10/02 07:33:05;;;;;;;28.35;18.02;;;17.00;99.90;;;;;;5021377;28;20059;-66
2023/10/02 07:35:33;;;;;;;30.33;18.58;;;17.10;99.90;;;;;;5038655;28;20037;-67
2023/10/02 07:37:59;;;;;;;31.48;19.15;;;17.10;99.90;;;;;;5054487;28;20033;-67
2023/10/02 07:40:46;;;;;;;29.77;17.98;;;17.20;99.90;;;;;;5021245;28;20049;-66
2023/10/02 07:43:23;;;;;;;28.15;18.58;;;17.20;99.90;;;;;;5054453;28;20497;-66
2023/10/02 07:46:02;;;;;;;27.95;17.55;;;17.20;99.90;;;;;;5054148;28;20041;-66
2023/10/02 07:48:35;;;;;;;26.85;17.67;;;17.30;99.90;;;;;;5039441;28;20049;-66
2023/10/02 07:51:01;;;;;;;29.20;18.20;;;17.40;99.90;;;;;;5053678;28;20509;-66
2023/10/02 07:53:40;;;;;;;28.00;18.95;;;17.40;99.90;;;;;;5053957;28;20171;-66
2023/10/02 07:56:07;;;;;;;29.23;18.80;;;17.50;99.90;;;;;;5054219;28;20549;-66
2023/10/02 07:58:35;;;;;;;29.33;18.30;;;17.50;99.90;;;;;;5054208;28;20489;-66
2023/10/02 08:01:11;;;;;;;27.70;17.92;;;17.60;99.90;;;;;;5054117;28;20060;-67
2023/10/02 08:03:44;;;;;;;27.70;17.83;;;17.60;99.90;;;;;;5054148;28;20450;-66
2023/10/02 08:11:53;;;;;;;29.00;17.83;;;17.70;99.90;;;;;;5053676;28;20044;-67
2023/10/02 08:14:40;;;;;;;29.80;18.08;;;17.80;99.90;;;;;;5037047;28;20090;-69
2023/10/02 08:17:21;;;;;;;29.35;17.88;;;17.80;99.90;;;;;;5055060;28;20555;-72
2023/10/02 08:22:52;;;;;;;29.83;18.90;;;17.90;99.90;;;;;;5053207;28;20053;-68
2023/10/02 08:25:23;;;;;;;28.65;18.38;;;17.90;99.90;;;;;;5053444;28;20048;-69
2023/10/02 08:27:57;;;;;;;28.60;18.27;;;18.00;99.90;;;;;;5053389;28;20103;-69
2023/10/02 08:30:31;;;;;;;30.00;18.27;;;18.00;99.90;;;;;;5053530;28;20033;-67
2023/10/02 08:33:18;;;;;;;30.58;18.98;;;18.10;99.90;;;;;;5053416;28;20056;-67
2023/10/02 08:35:47;;;;;;;30.13;19.20;;;18.10;99.90;;;;;;5053541;28;20041;-67
2023/10/02 08:38:23;;;;;;;31.00;18.83;;;18.20;99.90;;;;;;5053197;28;20045;-67
2023/10/02 08:40:57;;;;;;;29.63;18.83;;;18.30;99.90;;;;;;5036683;28;20045;-67
2023/10/02 08:43:24;;;;;;;29.65;19.83;;;18.30;99.90;;;;;;5054410;28;20033;-67
2023/10/02 08:45:50;;;;;;;30.20;18.17;;;18.40;99.90;;;;;;5053307;28;20063;-67
2023/10/02 08:48:19;;;;;;;30.02;19.30;;;18.40;99.90;;;;;;5052919;28;20037;-67
2023/10/02 08:50:49;;;;;;;31.33;19.42;;;18.60;99.90;;;;;;5052947;28;20045;-67
2023/10/02 08:53:20;;;;;;;29.27;19.05;;;18.70;99.90;;;;;;5052927;28;20087;-66
2023/10/02 08:56:25;;;;;;;30.58;19.30;;;18.80;99.90;;;;;;5052931;28;20134;-66
2023/10/02 08:59:15;;;;;;;31.52;18.60;;;18.90;99.90;;;;;;5051027;28;20044;-65
2023/10/02 09:01:42;;;;;;;28.48;18.77;;;19.00;99.90;;;;;;5051949;28;20076;-66
2023/10/02 09:06:57;;;;;;;30.25;19.02;;;19.00;99.90;;;;;;5052849;28;20132;-65
2023/10/02 09:11:57;;;;;;;32.33;19.75;;;19.20;99.90;;;;;;5052309;28;20155;-66
2023/10/02 09:17:16;;;;;;;29.45;17.73;;;19.50;99.90;;;;;;5036212;28;20047;-66
2023/10/02 09:20:03;;;;;;;28.58;19.40;;;19.60;99.90;;;;;;5052574;28;20111;-67
2023/10/02 09:22:36;;;;;;;30.83;18.90;;;19.80;99.90;;;;;;5052262;28;20045;-66
2023/10/02 09:25:16;;;;;;;29.02;19.45;;;19.90;99.90;;;;;;5036447;28;20102;-67
2023/10/02 09:28:26;;;;;;;29.40;18.92;;;20.00;99.90;;;;;;5052385;28;20561;-67
2023/10/02 09:30:45;;;;;;;27.10;17.98;;;20.10;99.90;;;;;;5050093;28;20080;-67
2023/10/02 09:33:22;;;;;;;28.90;19.70;;;20.30;99.90;;;;;;5052079;28;20091;-66
2023/10/02 09:35:52;;;;;;;27.75;18.02;;;20.50;99.90;;;;;;5052517;28;20055;-66
2023/10/02 09:38:23;;;;;;;30.73;19.67;;;20.60;99.90;;;;;;5052105;28;20049;-66
2023/10/02 09:40:58;;;;;;;30.67;19.95;;;20.70;99.90;;;;;;5052176;28;20547;-66
2023/10/02 09:43:30;;;;;;;31.85;19.88;;;20.80;99.90;;;;;;5036593;28;20048;-66
2023/10/02 09:46:05;;;;;;;30.40;19.70;;;20.80;99.90;;;;;;5035722;28;20041;-67
2023/10/02 09:49:19;;;;;;;30.77;20.38;;;20.90;99.90;;;;;;5052089;28;20041;-67
2023/10/02 09:51:30;;;;;;;29.52;18.98;;;21.00;99.90;;;;;;5043685;28;20088;-67
2023/10/02 09:54:13;;;;;;;30.58;21.23;;;21.20;99.90;;;;;;5051924;28;20040;-65
2023/10/02 09:56:51;;;;;;;30.33;19.95;;;21.10;99.90;;;;;;5051987;28;20527;-67
2023/10/02 09:59:22;;;;;;;31.70;20.73;;;21.10;99.90;;;;;;5053406;28;20044;-66
2023/10/02 10:02:07;;;;;;;32.03;21.73;;;21.10;99.90;;;;;;5035283;28;20052;-66
2023/10/02 10:05:05;;;;;;;30.80;20.35;;;21.30;99.90;;;;;;5051951;28;20091;-66
2023/10/02 10:07:51;;;;;;;29.23;19.67;;;21.50;99.90;;;;;;5051731;28;20071;-66
2023/10/02 10:10:47;;;;;;;35.50;22.80;;;21.60;99.90;;;;;;5051484;28;20040;-67
2023/10/02 10:13:26;;;;;;;;;;;21.60;99.90;;;;;;5055984;28;20037;-67
2023/10/02 10:16:11;;;;;;;32.65;21.50;;;21.50;99.90;;;;;;5041521;28;19916;-67
2023/10/02 10:27:41;;;;;;;34.20;22.10;;;21.30;99.90;;;;;;5059405;28;20041;-73
2023/10/02 10:30:24;;;;;;;32.03;20.85;;;21.30;99.90;;;;;;5059761;28;20048;-73
2023/10/02 10:35:48;;;;;;;30.20;21.20;;;21.40;99.90;;;;;;5059660;28;20051;-74
2023/10/02 10:38:28;;;;;;;36.45;22.08;;;21.30;99.90;;;;;;5059692;28;20044;-73
2023/10/02 10:41:00;;;;;;;31.90;22.33;;;21.30;99.90;;;;;;5058925;28;20049;-72
2023/10/02 10:46:27;;;;;;;32.85;21.35;;;21.30;99.90;;;;;;5058662;28;20527;-75
2023/10/02 10:49:19;;;;;;;36.25;22.60;;;21.30;99.90;;;;;;5058882;28;20040;-73
2023/10/02 10:51:52;;;;;;;32.80;21.27;;;21.30;99.90;;;;;;5059117;28;20041;-74
2023/10/02 10:54:30;;;;;;;33.25;21.17;;;21.40;99.90;;;;;;5058766;28;20102;-74
2023/10/02 11:00:23;;;;;;;31.52;21.65;;;21.50;99.90;;;;;;5045127;28;20052;-73
2023/10/02 11:03:08;;;;;;;34.42;22.08;;;21.50;99.90;;;;;;5059419;28;20080;-74
2023/10/02 11:05:35;;;;;;;31.65;21.27;;;21.60;99.90;;;;;;5058996;28;20052;-73
2023/10/02 11:08:23;;;;;;;30.35;20.42;;;21.70;99.90;;;;;;5042133;28;20049;-74
2023/10/02 11:11:00;;;;;;;34.58;21.08;;;21.70;99.90;;;;;;5058866;28;20113;-72
2023/10/02 11:13:50;;;;;;;29.45;19.40;;;21.70;99.90;;;;;;5059007;28;20049;-72
2023/10/02 11:16:30;;;;;;;29.67;19.42;;;21.80;99.90;;;;;;5058233;28;20393;-67
2023/10/02 11:19:55;;;;;;;30.90;19.23;;;22.00;99.90;;;;;;5057795;28;20110;-67
2023/10/02 11:22:15;;;;;;;28.25;19.23;;;22.20;99.90;;;;;;5050538;28;20509;-66
2023/10/02 11:24:51;;;;;;;29.60;18.95;;;22.40;99.90;;;;;;5055268;28;20040;-67
2023/10/02 11:27:18;;;;;;;29.15;19.38;;;22.40;99.90;;;;;;5054761;28;20084;-67
2023/10/02 11:30:00;;;;;;;28.98;18.33;;;22.40;99.90;;;;;;5038353;28;20084;-67
2023/10/02 11:35:56;;;;;;;31.08;17.65;;;22.40;99.90;;;;;;5037346;28;20045;-67
2023/10/02 11:38:25;;;;;;;28.52;18.08;;;22.50;99.90;;;;;;5024115;28;20048;-67
2023/10/02 11:40:52;;;;;;;27.60;17.98;;;22.50;99.90;;;;;;5054150;28;20040;-67
2023/10/02 11:43:18;;;;;;;25.92;16.65;;;22.60;99.90;;;;;;5037796;28;20056;-67
2023/10/02 11:45:43;;;;;;;26.48;17.40;;;22.50;99.90;;;;;;5037708;28;20045;-67
2023/10/02 11:48:09;;;;;;;30.88;18.60;;;22.50;99.90;;;;;;5037556;28;20493;-66
2023/10/02 11:50:35;;;;;;;28.50;18.48;;;22.40;99.90;;;;;;5053829;28;20551;-67
2023/10/02 11:53:01;;;;;;;28.48;18.70;;;22.30;99.90;;;;;;5037610;28;20040;-67
2023/10/02 11:55:27;;;;;;;27.55;18.27;;;22.20;99.90;;;;;;5037660;28;20393;-67
2023/10/02 11:57:53;;;;;;;27.15;16.88;;;22.20;99.90;;;;;;5037428;28;20052;-66
2023/10/02 12:00:20;;;;;;;27.92;16.95;;;22.10;99.90;;;;;;5053846;28;20041;-66
2023/10/02 12:02:47;;;;;;;27.05;17.92;;;22.20;99.90;;;;;;5054113;28;20089;-66
2023/10/02 12:05:14;;;;;;;27.50;17.08;;;22.20;99.90;;;;;;5037619;28;20536;-66
2023/10/02 12:07:41;;;;;;;27.02;17.00;;;22.20;99.90;;;;;;5053957;28;20041;-66
2023/10/02 12:10:08;;;;;;;24.85;16.13;;;22.20;99.90;;;;;;5037583;28;20052;-66
2023/10/02 12:12:33;;;;;;;27.48;16.95;;;22.20;99.90;;;;;;5053724;28;20087;-66
2023/10/02 12:14:59;;;;;;;28.70;16.88;;;22.20;99.90;;;;;;5037122;28;20534;-66
2023/10/02 12:17:25;;;;;;;26.48;16.05;;;22.30;99.90;;;;;;5053706;28;20041;-66
2023/10/02 12:19:54;;;;;;;26.40;17.02;;;22.40;99.90;;;;;;5053558;28;20041;-66
2023/10/02 12:22:19;;;;;;;27.58;17.88;;;22.40;99.90;;;;;;5053616;28;20056;-66
2023/10/02 12:24:46;;;;;;;28.00;17.40;;;22.50;99.90;;;;;;5053605;28;20041;-68
2023/10/02 12:27:16;;;;;;;27.48;17.35;;;22.50;99.90;;;;;;5055801;28;20041;-73
2023/10/02 12:29:43;;;;;;;25.50;16.10;;;22.50;99.90;;;;;;5038199;28;20481;-73
2023/10/02 12:32:09;;;;;;;26.40;17.42;;;22.60;99.90;;;;;;5037719;28;20037;-73
2023/10/02 12:34:35;;;;;;;26.95;16.55;;;22.70;99.90;;;;;;5037892;28;20095;-73
2023/10/02 12:37:01;;;;;;;25.08;16.63;;;22.80;99.90;;;;;;5053317;28;20041;-73
2023/10/02 12:39:28;;;;;;;23.92;15.20;;;22.90;99.90;;;;;;5054360;28;20044;-74
2023/10/02 12:41:55;;;;;;;24.35;15.18;;;23.00;99.90;;;;;;5038124;28;20051;-73
2023/10/02 12:44:21;;;;;;;24.20;15.88;;;23.00;99.90;;;;;;5037703;28;20032;-74
2023/10/02 12:46:56;;;;;;;25.33;14.85;;;23.10;99.90;;;;;;5054019;28;20540;-74
2023/10/02 12:49:23;;;;;;;21.48;13.90;;;23.10;99.90;;;;;;5052920;28;20076;-73
2023/10/02 12:51:50;;;;;;;23.13;14.63;;;23.20;99.90;;;;;;5036658;28;20083;-74
2023/10/02 12:54:16;;;;;;;25.75;15.32;;;23.20;99.90;;;;;;5053434;28;20041;-73
2023/10/02 12:56:45;;;;;;;22.55;13.77;;;23.30;99.90;;;;;;5037122;28;20048;-72
2023/10/02 12:59:11;;;;;;;21.83;14.40;;;23.30;99.90;;;;;;5037706;28;20037;-73
2023/10/02 13:01:37;;;;;;;24.58;15.50;;;23.40;99.90;;;;;;5053853;28;20041;-73
2023/10/02 13:04:03;;;;;;;24.65;15.02;;;23.40;99.90;;;;;;5053864;28;20365;-72
2023/10/02 13:06:33;;;;;;;24.88;15.98;;;23.40;99.90;;;;;;5037240;28;20045;-72
2023/10/02 13:09:08;;;;;;;26.42;15.93;;;23.30;99.90;;;;;;5050861;28;20045;-72
2023/10/02 13:11:39;;;;;;;26.38;15.73;;;23.30;99.90;;;;;;5053861;28;20512;-72
2023/10/02 13:14:08;;;;;;;26.70;16.67;;;23.30;99.90;;;;;;5053720;28;20458;-72
2023/10/02 13:16:37;;;;;;;24.92;15.73;;;23.30;99.90;;;;;;5037241;28;20125;-72
2023/10/02 13:19:11;;;;;;;24.77;14.13;;;23.30;99.90;;;;;;5053715;28;20069;-73
2023/10/02 13:21:37;;;;;;;28.13;16.35;;;23.30;99.90;;;;;;5053389;28;20051;-73
2023/10/02 13:24:05;;;;;;;25.70;16.00;;;23.20;99.90;;;;;;5053268;28;20057;-73
2023/10/02 13:26:32;;;;;;;23.38;15.05;;;23.20;99.90;;;;;;5053285;28;20075;-73
2023/10/02 13:28:59;;;;;;;23.02;13.82;;;23.20;99.90;;;;;;5053456;28;20053;-73
2023/10/02 13:31:25;;;;;;;23.85;14.57;;;23.20;99.90;;;;;;5036486;28;20049;-73
2023/10/02 13:33:55;;;;;;;26.27;15.13;;;23.20;99.90;;;;;;5036663;28;20045;-74
2023/10/02 13:36:22;;;;;;;23.48;15.02;;;23.20;99.90;;;;;;5020287;28;20041;-67
2023/10/02 13:38:56;;;;;;;25.52;15.00;;;23.10;99.90;;;;;;5036036;28;20546;-67
2023/10/02 13:41:22;;;;;;;23.15;14.80;;;23.10;99.90;;;;;;5052335;28;20080;-67
2023/10/02 13:43:52;;;;;;;23.23;14.55;;;23.10;99.90;;;;;;5052237;28;20099;-67
2023/10/02 13:46:20;;;;;;;21.42;14.02;;;23.00;99.90;;;;;;5035596;28;20127;-67
2023/10/02 13:48:53;;;;;;;22.85;14.60;;;23.00;99.90;;;;;;5051546;28;20049;-68
2023/10/02 13:51:21;;;;;;;26.00;15.70;;;23.00;99.90;;;;;;5052043;28;20112;-67
2023/10/02 13:53:49;;;;;;;24.02;14.80;;;22.90;99.90;;;;;;5035618;28;20040;-67
2023/10/02 13:56:32;;;;;;;23.42;14.70;;;22.80;99.90;;;;;;5051919;28;20034;-67
2023/10/02 13:58:59;;;;;;;21.83;13.90;;;22.90;99.90;;;;;;5036731;28;20041;-66
2023/10/02 14:01:25;;;;;;;21.85;13.63;;;23.00;99.90;;;;;;5035306;28;20076;-66
2023/10/02 14:03:53;;;;;;;22.70;14.07;;;23.00;99.90;;;;;;5035278;28;20528;-66
2023/10/02 14:06:26;;;;;;;20.65;12.30;;;23.00;99.90;;;;;;5051762;28;20056;-67
2023/10/02 14:08:52;;;;;;;21.58;13.25;;;23.00;99.90;;;;;;5052006;28;20052;-68
2023/10/02 14:11:20;;;;;;;22.80;12.70;;;23.00;99.90;;;;;;5051582;28;20049;-68
2023/10/02 14:13:48;;;;;;;20.35;12.95;;;23.00;99.90;;;;;;5051635;28;20041;-67
2023/10/02 14:16:19;;;;;;;22.30;13.43;;;23.00;99.90;;;;;;5035280;28;20066;-67
2023/10/02 14:18:51;;;;;;;23.48;13.63;;;23.00;99.90;;;;;;5051710;28;20045;-72